Terminal Aerodrome Forecast
Issued by NWS

Home | Current Version | Previous Version | Text Only | Print | Product List | Glossary On
Versions: 1 2 3 4 5 6 7 8 9 10 11 12 13 14 15 16 17 18 19 20 21 22 23 24 25
000
FTUS41 KRNK 291732
TAFLWB
TAF
KLWB 291732Z 2918/3018 30003KT P6SM SCT025 BKN040
      TEMPO 2918/2920 BKN025
     FM292000 30004KT P6SM VCSH BKN040
     FM300100 00000KT P6SM BKN060
     FM300700 00000KT 2SM BR OVC020
     FM301400 27004KT P6SM SCT020 BKN040=

USA.gov is the U.S. government's official web portal to all federal, state and local government web resources and services.